Time;durP1;ratioP1;P1;durP2;ratioP2;P2;SDS_P1;SDS_P2;PMS_P1;PMS_P2;Temp;Humidity;BMP_temperature;BMP_pressure;BME280_temperature;BME280_humidity;BME280_pressure;Samples;Min_cycle;Max_cycle;Signal;HPM_P1;HPM_P2
2022/04/01 00:00:28;;;;;;;39.70;17.52;;;;;;;7.72;92.09;94016.66;5106370;28;20063;-76
2022/04/01 00:02:54;;;;;;;35.13;17.65;;;;;;;7.72;91.81;94019.38;5105652;28;20638;-76
2022/04/01 00:05:21;;;;;;;44.75;17.77;;;;;;;7.73;91.89;94010.91;5107962;28;20059;-77
2022/04/01 00:07:47;;;;;;;39.55;18.08;;;;;;;7.75;91.91;94013.25;5110054;28;20048;-76
2022/04/01 00:10:14;;;;;;;53.75;20.20;;;;;;;7.76;91.63;94014.81;5108967;28;20059;-76
2022/04/01 00:12:43;;;;;;;40.28;17.92;;;;;;;7.70;91.89;94018.94;5109989;28;20054;-76
2022/04/01 00:15:12;;;;;;;45.33;18.63;;;;;;;7.65;92.09;94013.81;5110003;28;20051;-76
2022/04/01 00:17:38;;;;;;;41.22;18.17;;;;;;;7.71;92.11;94017.81;5110760;28;20536;-76
2022/04/01 00:20:05;;;;;;;45.50;19.27;;;;;;;7.76;92.09;94020.22;5108642;28;20051;-76
2022/04/01 00:22:32;;;;;;;43.60;18.38;;;;;;;7.74;91.91;94017.88;5110044;28;20063;-76
2022/04/01 00:24:58;;;;;;;37.05;16.50;;;;;;;7.77;91.86;94021.78;5109620;28;20046;-77
2022/04/01 00:27:25;;;;;;;37.63;17.67;;;;;;;7.72;91.85;94019.38;5109803;28;20047;-75
2022/04/01 00:29:53;;;;;;;42.03;17.65;;;;;;;7.70;91.81;94010.81;5109309;28;20059;-76
2022/04/01 00:32:21;;;;;;;47.65;18.02;;;;;;;7.69;91.69;94014.69;5108812;28;20047;-75
2022/04/01 00:34:48;;;;;;;33.55;15.93;;;;;;;7.69;91.69;94012.75;5109645;28;20572;-77
2022/04/01 00:37:15;;;;;;;44.65;18.02;;;;;;;7.68;92.11;94007.69;5108850;28;20056;-78
2022/04/01 00:39:41;;;;;;;41.40;17.58;;;;;;;7.67;92.24;94008.81;5110122;28;20059;-75
2022/04/01 00:42:08;;;;;;;38.72;17.00;;;;;;;7.68;92.37;94007.69;5108246;28;20051;-78
2022/04/01 00:44:37;;;;;;;34.15;15.27;;;;;;;7.72;92.14;94008.53;5110184;28;20058;-78
2022/04/01 00:47:07;;;;;;;31.90;14.70;;;;;;;7.68;91.91;94002.28;5108810;28;20053;-76
2022/04/01 00:49:34;;;;;;;32.58;14.55;;;;;;;7.71;92.35;94015.09;5110184;28;20047;-77
2022/04/01 00:52:03;;;;;;;32.55;15.07;;;;;;;7.68;92.23;94011.19;5109698;28;20048;-77
2022/04/01 00:54:30;;;;;;;34.70;15.13;;;;;;;7.66;92.35;94004.53;5108989;28;20047;-76
2022/04/01 00:56:56;;;;;;;28.42;12.85;;;;;;;7.66;92.09;94004.53;5109551;28;20059;-76
2022/04/01 00:59:24;;;;;;;27.98;12.68;;;;;;;7.56;91.87;94001.25;5108688;28;20044;-76
2022/04/01 01:01:50;;;;;;;26.10;11.00;;;;;;;7.48;91.68;94009.59;5109300;28;20489;-77
2022/04/01 01:04:20;;;;;;;31.83;11.18;;;;;;;7.39;91.61;94007.09;5107711;28;20043;-77
2022/04/01 01:06:48;;;;;;;26.00;10.48;;;;;;;7.36;91.25;94007.00;5108037;28;20669;-76
2022/04/01 01:09:15;;;;;;;24.80;10.02;;;;;;;7.26;90.98;94008.38;5107817;28;20047;-76
2022/04/01 01:11:44;;;;;;;24.98;9.65;;;;;;;7.22;91.29;94007.50;5109666;28;20048;-76
2022/04/01 01:14:13;;;;;;;23.17;9.95;;;;;;;7.20;91.26;94001.66;5108279;28;20043;-77
2022/04/01 01:16:41;;;;;;;28.30;10.45;;;;;;;7.21;91.63;94006.72;5108109;28;20517;-76
2022/04/01 01:19:10;;;;;;;22.20;9.82;;;;;;;7.12;91.40;93999.94;5108452;28;20047;-78
2022/04/01 01:21:39;;;;;;;26.23;9.93;;;;;;;7.05;91.34;94003.28;5108692;28;20078;-77
2022/04/01 01:24:11;;;;;;;22.38;9.50;;;;;;;6.97;91.18;94002.31;5108958;28;20055;-76
2022/04/01 01:26:39;;;;;;;29.88;11.30;;;;;;;6.97;91.65;93991.50;5108469;28;20054;-77
2022/04/01 01:29:07;;;;;;;24.45;10.02;;;;;;;6.92;91.91;93999.09;5108743;28;20051;-76
2022/04/01 01:31:34;;;;;;;18.15;8.55;;;;;;;6.90;91.93;94001.38;5108188;28;20075;-76
2022/04/01 01:34:01;;;;;;;23.75;9.88;;;;;;;6.90;91.96;93995.97;5109269;28;20050;-77
2022/04/01 01:36:30;;;;;;;15.13;9.30;;;;;;;6.92;92.09;93999.88;5107767;28;20460;-76
2022/04/01 01:38:57;;;;;;;16.48;10.23;;;;;;;6.88;92.24;93993.59;5108693;28;20048;-77
2022/04/01 01:41:25;;;;;;;14.13;9.07;;;;;;;6.83;92.29;93991.16;5107934;28;20604;-76
2022/04/01 01:43:53;;;;;;;13.95;9.48;;;;;;;6.82;92.57;93988.81;5108808;28;20051;-76
2022/04/01 01:46:19;;;;;;;18.67;10.27;;;;;;;6.78;92.67;93989.50;5108433;28;20147;-78
2022/04/01 01:48:46;;;;;;;15.30;9.23;;;;;;;6.81;92.53;93982.63;5108416;28;20051;-77
2022/04/01 01:56:45;;;;;;;15.68;10.07;;;;;;;6.75;92.64;93984.03;5108496;28;20043;-77
2022/04/01 01:59:13;;;;;;;17.85;10.50;;;;;;;6.74;92.67;93979.75;5107831;28;20048;-76
2022/04/01 02:01:39;;;;;;;15.68;10.32;;;;;;;6.68;92.60;93967.63;5107856;28;20117;-77
2022/04/01 02:04:06;;;;;;;16.85;10.63;;;;;;;6.68;92.89;93978.44;5108101;28;20070;-78
2022/04/01 02:06:34;;;;;;;17.92;10.90;;;;;;;6.66;92.83;93980.72;5107725;28;20056;-78
2022/04/01 02:09:01;;;;;;;15.75;10.10;;;;;;;6.65;92.94;93979.94;5108721;28;20051;-77
2022/04/01 02:11:27;;;;;;;18.27;10.57;;;;;;;6.68;92.98;93984.66;5106892;28;20390;-76
2022/04/01 02:13:54;;;;;;;16.85;11.00;;;;;;;6.68;93.07;93979.25;5108885;28;20059;-78
2022/04/01 02:16:22;;;;;;;18.23;10.85;;;;;;;6.72;93.40;93979.31;5117482;27;20058;-76
2022/04/01 02:18:50;;;;;;;17.17;10.43;;;;;;;6.70;93.03;93978.88;5128460;27;20058;-78
2022/04/01 02:21:17;;;;;;;17.55;10.68;;;;;;;6.69;93.21;93980.03;5127190;27;20742;-78
2022/04/01 02:23:46;;;;;;;18.67;11.88;;;;;;;6.67;93.34;93974.94;5128633;27;20043;-77
2022/04/01 02:26:13;;;;;;;16.02;10.60;;;;;;;6.69;93.09;93980.03;5128271;27;20055;-77
2022/04/01 02:28:42;;;;;;;20.40;11.88;;;;;;;6.67;92.98;93974.16;5128126;27;20130;-77
2022/04/01 02:31:11;;;;;;;16.42;10.63;;;;;;;6.67;93.00;93976.88;5127668;27;20051;-76
2022/04/01 02:33:38;;;;;;;17.90;11.48;;;;;;;6.65;93.13;93979.16;5128107;27;20058;-76
2022/04/01 02:36:10;;;;;;;18.73;12.13;;;;;;;6.66;93.22;93983.44;5127789;27;20055;-77
2022/04/01 02:38:38;;;;;;;19.67;11.43;;;;;;;6.68;93.41;93978.44;5127618;27;20147;-76
2022/04/01 02:41:05;;;;;;;21.00;12.98;;;;;;;6.66;93.08;93981.50;5127515;27;20051;-76
2022/04/01 02:43:32;;;;;;;18.77;12.05;;;;;;;6.62;93.00;93980.63;5128005;27;20054;-76
2022/04/01 02:45:59;;;;;;;19.85;11.68;;;;;;;6.63;93.40;93984.13;5126964;27;20047;-76
2022/04/01 02:48:26;;;;;;;18.00;11.57;;;;;;;6.63;93.33;93986.81;5127619;27;20118;-77
2022/04/01 02:50:54;;;;;;;19.23;11.80;;;;;;;6.60;93.47;93982.13;5127223;27;20047;-76
2022/04/01 02:53:21;;;;;;;19.08;11.82;;;;;;;6.63;93.35;93986.81;5127514;27;20390;-76
2022/04/01 02:55:48;;;;;;;19.52;12.35;;;;;;;6.64;93.29;93980.31;5127124;27;20043;-77
2022/04/01 02:58:16;;;;;;;19.20;12.32;;;;;;;6.65;93.48;93971.81;5127648;27;20054;-77
2022/04/01 03:00:42;;;;;;;19.77;12.00;;;;;;;6.69;93.54;93980.03;5127101;27;20086;-77
2022/04/01 03:03:10;;;;;;;19.13;12.07;;;;;;;6.71;93.43;93986.66;5127398;27;20054;-77
2022/04/01 03:05:38;;;;;;;19.52;12.63;;;;;;;6.71;93.43;93978.53;5127217;27;20104;-77
2022/04/01 03:08:07;;;;;;;20.85;12.05;;;;;;;6.75;93.22;93978.63;5126999;27;20047;-78
2022/04/01 03:10:34;;;;;;;20.90;12.85;;;;;;;6.73;93.00;93981.69;5127348;27;20070;-77
2022/04/01 03:13:01;;;;;;;21.27;12.73;;;;;;;6.75;92.99;93984.03;5127096;27;20054;-75
2022/04/01 03:15:28;;;;;;;20.30;13.52;;;;;;;6.77;93.26;93982.53;5123778;27;20494;-76
2022/04/01 03:17:55;;;;;;;19.23;12.27;;;;;;;6.77;92.95;93984.44;5106842;28;20078;-76
2022/04/01 03:20:22;;;;;;;20.70;13.02;;;;;;;6.75;92.91;93979.41;5106782;28;20047;-76
2022/04/01 03:22:50;;;;;;;18.65;11.60;;;;;;;6.73;92.78;93980.88;5106277;28;20800;-78
2022/04/01 03:25:20;;;;;;;19.17;12.30;;;;;;;6.75;92.81;93982.09;5106411;28;20067;-76
2022/04/01 03:27:46;;;;;;;17.58;12.02;;;;;;;6.74;92.65;93983.25;5106697;28;20047;-76
2022/04/01 03:30:13;;;;;;;19.95;13.25;;;;;;;6.72;92.53;93973.91;5106193;28;20047;-77
2022/04/01 03:32:41;;;;;;;21.15;13.10;;;;;;;6.77;92.80;93987.16;5107186;28;20043;-78
2022/04/01 03:35:09;;;;;;;20.65;12.98;;;;;;;6.78;92.90;93977.91;5106060;28;20062;-76
2022/04/01 03:37:36;;;;;;;20.95;13.18;;;;;;;6.79;92.84;93979.50;5106985;28;20049;-76
2022/04/01 03:40:04;;;;;;;23.13;13.75;;;;;;;6.82;92.42;93978.78;5107191;28;20074;-76
2022/04/01 03:42:32;;;;;;;18.90;12.82;;;;;;;6.84;92.61;93979.22;5111437;28;20047;-76
2022/04/01 03:45:01;;;;;;;21.38;12.90;;;;;;;6.84;92.07;93981.94;5108224;28;20055;-76
2022/04/01 03:47:38;;;;;;;20.50;12.88;;;;;;;6.84;92.09;93981.94;5111075;28;20101;-76
2022/04/01 03:50:07;;;;;;;21.15;13.77;;;;;;;6.89;92.26;93975.44;5110171;28;20093;-76
2022/04/01 03:52:33;;;;;;;25.08;14.88;;;;;;;6.90;91.94;93980.53;5110306;28;20096;-77
2022/04/01 03:55:04;;;;;;;21.88;13.85;;;;;;;6.88;91.65;93977.38;5111139;28;20047;-76
2022/04/01 03:57:35;;;;;;;23.45;14.88;;;;;;;6.79;91.79;93974.88;5109812;28;20127;-76
2022/04/01 04:00:03;;;;;;;23.80;14.40;;;;;;;6.80;91.76;93964.81;5110472;28;20432;-76
2022/04/01 04:02:33;;;;;;;23.80;14.05;;;;;;;6.85;91.70;93967.25;5110074;28;20113;-76
2022/04/01 04:05:00;;;;;;;22.23;13.85;;;;;;;6.82;91.61;93965.25;5111217;28;20147;-76
2022/04/01 04:07:27;;;;;;;20.83;13.43;;;;;;;6.77;91.74;93970.94;5109673;28;20044;-76
2022/04/01 04:09:54;;;;;;;19.25;12.05;;;;;;;6.50;91.72;93972.63;5110709;28;20047;-76
2022/04/01 04:12:22;;;;;;;17.27;10.23;;;;;;;6.12;92.23;93975.94;5109622;28;20048;-76
2022/04/01 04:14:53;;;;;;;17.10;9.20;;;;;;;5.97;92.00;93978.25;5109811;28;20623;-77
2022/04/01 04:17:31;;;;;;;12.52;7.40;;;;;;;5.71;92.68;93975.22;5109867;28;20056;-77
2022/04/01 04:20:02;;;;;;;14.13;7.95;;;;;;;5.41;93.58;93983.66;5109480;28;20075;-77
2022/04/01 04:22:31;;;;;;;15.05;8.07;;;;;;;5.40;94.62;93984.78;5109970;28;20047;-78
2022/04/01 04:25:00;;;;;;;16.45;7.95;;;;;;;5.59;94.76;93977.97;5109693;28;20517;-76
2022/04/01 04:27:28;;;;;;;17.95;9.00;;;;;;;5.74;94.29;93990.72;5110100;28;20050;-78
2022/04/01 04:30:05;;;;;;;16.33;8.82;;;;;;;5.43;94.49;93983.34;5109642;28;20058;-78
2022/04/01 04:32:35;;;;;;;16.13;9.38;;;;;;;5.05;94.81;93994.53;5109721;28;20049;-77
2022/04/01 04:35:04;;;;;;;14.02;8.38;;;;;;;4.75;95.61;93989.44;5110057;28;20502;-76
2022/04/01 04:37:32;;;;;;;15.57;8.82;;;;;;;4.69;96.41;93990.75;5109203;28;20052;-77
2022/04/01 04:40:01;;;;;;;12.23;7.70;;;;;;;4.57;96.64;94004.25;5109660;28;20052;-76
2022/04/01 04:42:32;;;;;;;16.88;9.48;;;;;;;4.48;97.79;93995.50;5108421;28;20047;-76
2022/04/01 04:45:01;;;;;;;15.02;9.05;;;;;;;4.38;98.17;93997.50;5109596;28;20134;-76
2022/04/01 04:47:28;;;;;;;13.32;8.40;;;;;;;4.53;98.30;93997.97;5109132;28;20050;-77
2022/04/01 04:49:57;;;;;;;15.00;9.05;;;;;;;4.58;98.01;93998.53;5109834;28;20131;-76
2022/04/01 04:52:27;;;;;;;14.63;8.10;;;;;;;4.36;97.69;93999.75;5107350;28;20057;-76
2022/04/01 04:54:55;;;;;;;15.80;9.07;;;;;;;4.48;98.01;94007.06;5109278;28;20168;-77
2022/04/01 04:57:22;;;;;;;14.13;8.70;;;;;;;4.32;98.28;94004.22;5109275;28;21748;-76
2022/04/01 04:59:51;;;;;;;18.88;9.73;;;;;;;4.23;99.06;94013.53;5108489;28;20429;-76
2022/04/01 05:02:28;;;;;;;15.18;8.82;;;;;;;4.20;98.81;94012.31;5108859;28;20075;-76
2022/04/01 05:05:03;;;;;;;15.15;8.85;;;;;;;3.98;98.78;94020.78;5108745;28;20099;-76
2022/04/01 05:07:46;;;;;;;17.55;10.05;;;;;;;4.23;99.56;94027.00;5109040;28;20036;-76
2022/04/01 05:10:16;;;;;;;15.75;9.23;;;;;;;4.33;99.14;94029.25;5108521;28;20051;-76
2022/04/01 05:12:53;;;;;;;14.05;8.23;;;;;;;4.27;97.83;94023.31;5108708;28;20134;-76
2022/04/01 05:15:24;;;;;;;13.75;7.78;;;;;;;4.13;97.25;94030.94;5108299;28;20044;-76
2022/04/01 05:17:56;;;;;;;14.32;8.23;;;;;;;3.99;97.63;94030.44;5108158;28;20048;-78
2022/04/01 05:20:28;;;;;;;13.57;8.02;;;;;;;3.83;98.20;94036.44;5108567;28;20047;-76
2022/04/01 05:23:06;;;;;;;12.98;7.60;;;;;;;3.74;98.85;94034.97;5108431;28;20052;-76
2022/04/01 05:25:41;;;;;;;15.40;8.13;;;;;;;3.75;98.95;94037.31;5108816;28;20097;-77
2022/04/01 05:28:17;;;;;;;14.88;8.00;;;;;;;3.69;98.89;94040.53;5108295;28;20138;-77
2022/04/01 05:30:46;;;;;;;14.85;8.70;;;;;;;3.97;99.21;94041.56;5107810;28;20051;-78
2022/04/01 05:33:18;;;;;;;14.65;8.07;;;;;;;4.04;98.42;94038.31;5108669;28;20044;-77
2022/04/01 05:35:51;;;;;;;14.35;7.95;;;;;;;3.74;98.50;94043.81;5108281;28;20062;-76
2022/04/01 05:38:19;;;;;;;12.60;7.63;;;;;;;3.75;98.65;94056.16;5108860;28;20067;-76
2022/04/01 05:40:47;;;;;;;12.95;8.02;;;;;;;3.72;98.41;94050.66;5107790;28;20074;-76
2022/04/01 05:43:15;;;;;;;15.57;9.00;;;;;;;3.75;99.10;94056.16;5107526;28;20059;-76
2022/04/01 05:45:42;;;;;;;15.30;8.65;;;;;;;3.84;99.32;94048.78;5107307;28;20040;-77
2022/04/01 05:48:11;;;;;;;15.18;8.68;;;;;;;3.74;99.21;94059.19;5107877;28;20411;-77
2022/04/01 05:50:39;;;;;;;13.82;8.00;;;;;;;3.64;99.06;94057.69;5107965;28;20772;-76
2022/04/01 05:53:07;;;;;;;14.25;8.00;;;;;;;3.68;99.70;94053.22;5107892;28;20052;-77
2022/04/01 05:55:36;;;;;;;13.38;7.75;;;;;;;3.75;99.28;94056.16;5108799;28;20052;-77
2022/04/01 05:58:04;;;;;;;14.35;7.65;;;;;;;3.85;99.65;94060.34;5107289;28;20047;-76
2022/04/01 06:00:39;;;;;;;14.65;7.90;;;;;;;3.93;99.10;94060.28;5107995;28;20075;-78
2022/04/01 06:03:31;;;;;;;13.77;7.28;;;;;;;3.78;98.49;94060.88;5106957;28;20493;-77
2022/04/01 06:06:04;;;;;;;14.02;7.00;;;;;;;3.99;98.47;94060.84;5107832;28;20050;-74
2022/04/01 06:08:44;;;;;;;10.18;6.18;;;;;;;3.86;98.13;94062.72;5107599;28;20421;-75
2022/04/01 06:11:17;;;;;;;13.80;7.78;;;;;;;3.88;98.39;94065.88;5106457;28;20052;-75
2022/04/01 06:14:00;;;;;;;14.75;8.05;;;;;;;4.05;98.39;94069.50;5107979;28;20048;-77
2022/04/01 06:16:32;;;;;;;14.50;7.53;;;;;;;4.05;98.42;94070.28;5106803;28;20040;-75
2022/04/01 06:19:10;;;;;;;13.18;7.93;;;;;;;4.23;98.39;94065.53;5107783;28;20051;-76
2022/04/01 06:21:47;;;;;;;14.63;7.10;;;;;;;4.08;97.17;94068.84;5107198;28;20043;-76
2022/04/01 06:24:23;;;;;;;11.77;6.82;;;;;;;3.99;97.44;94071.63;5106539;28;20070;-77
2022/04/01 06:26:58;;;;;;;11.75;6.85;;;;;;;3.91;97.20;94070.59;5108217;28;20497;-78
2022/04/01 06:29:37;;;;;;;12.55;6.25;;;;;;;4.02;97.34;94075.53;5106343;28;20502;-76
2022/04/01 06:32:07;;;;;;;11.73;6.47;;;;;;;3.78;97.36;94077.03;5106805;28;20048;-77
2022/04/01 06:34:47;;;;;;;10.82;6.15;;;;;;;3.54;97.46;94076.91;5107378;28;20628;-77
2022/04/01 06:37:22;;;;;;;9.85;5.60;;;;;;;3.40;98.38;94083.38;5106749;28;20051;-76
2022/04/01 06:40:01;;;;;;;8.52;4.85;;;;;;;3.36;98.96;94093.19;5107827;28;20054;-77
2022/04/01 06:42:32;;;;;;;11.68;5.68;;;;;;;3.44;99.02;94094.25;5106298;28;20059;-77
2022/04/01 06:44:58;;;;;;;13.02;6.45;;;;;;;3.32;99.08;94097.66;5107189;28;20054;-76
2022/04/01 06:47:25;;;;;;;10.23;5.97;;;;;;;3.16;99.12;94098.56;5106013;28;20051;-77
2022/04/01 06:49:51;;;;;;;19.13;7.25;;;;;;;3.12;100.00;94101.88;5107005;28;20052;-77
2022/04/01 06:52:19;;;;;;;10.15;5.88;;;;;;;3.25;100.00;94104.66;5106427;28;20067;-77
2022/04/01 06:54:46;;;;;;;13.52;5.72;;;;;;;3.03;99.69;94105.75;5066647;28;20079;-76
2022/04/01 06:57:14;;;;;;;10.13;5.38;;;;;;;3.00;99.61;94111.78;5066209;28;20056;-76
2022/04/01 06:59:40;;;;;;;12.80;6.32;;;;;;;3.23;100.00;94110.34;5065991;28;20281;-76
2022/04/01 07:02:07;;;;;;;9.27;5.03;;;;;;;3.19;99.37;94114.84;5066192;28;20667;-76
2022/04/01 07:04:33;;;;;;;7.85;5.22;;;;;;;3.48;99.45;94115.91;5065991;28;20056;-77
2022/04/01 07:07:00;;;;;;;8.40;4.95;;;;;;;3.66;99.23;94103.91;5067312;28;20056;-77
2022/04/01 07:09:28;;;;;;;7.25;4.70;;;;;;;3.48;97.51;94118.59;5065611;28;20049;-77
2022/04/01 07:11:55;;;;;;;8.73;5.22;;;;;;;3.28;97.46;94112.06;5066593;28;20593;-76
2022/04/01 07:14:21;;;;;;;6.28;4.15;;;;;;;3.21;98.32;94119.88;5074449;28;21149;-76
2022/04/01 07:16:48;;;;;;;7.43;4.93;;;;;;;3.33;98.91;94114.56;5086261;28;20051;-76
2022/04/01 07:19:14;;;;;;;7.65;4.65;;;;;;;3.23;98.91;94113.03;5086079;28;20048;-77
2022/04/01 07:21:41;;;;;;;9.95;4.43;;;;;;;3.43;99.02;94113.41;5085942;28;20052;-76
2022/04/01 07:24:08;;;;;;;5.45;3.30;;;;;;;3.31;97.93;94112.22;5086570;28;20044;-77
2022/04/01 07:26:36;;;;;;;5.75;3.70;;;;;;;3.39;97.73;94115.94;5081053;28;20076;-76
2022/04/01 07:29:03;;;;;;;6.88;4.32;;;;;;;3.42;97.43;94112.63;5066263;28;20646;-76
2022/04/01 07:34:16;;;;;;;4.65;2.72;;;;;;;3.19;96.99;94114.84;5065875;28;20051;-76
2022/04/01 07:36:42;;;;;;;5.43;3.00;;;;;;;3.17;97.60;94121.63;5065645;28;20874;-76
2022/04/01 07:39:09;;;;;;;4.13;2.83;;;;;;;3.18;97.38;94126.69;5065654;28;20056;-76
2022/04/01 07:41:36;;;;;;;8.18;3.17;;;;;;;3.30;96.86;94128.69;5065865;28;20052;-77
2022/04/01 07:44:03;;;;;;;5.32;3.28;;;;;;;3.04;96.69;94131.53;5064865;28;20044;-76
2022/04/01 07:46:30;;;;;;;6.40;3.60;;;;;;;2.97;96.82;94128.53;5066525;28;20159;-76
2022/04/01 07:48:57;;;;;;;4.80;3.30;;;;;;;2.91;96.87;94130.63;5065661;28;20507;-76
2022/04/01 07:51:23;;;;;;;4.90;3.03;;;;;;;3.15;96.92;94138.09;5065578;28;20048;-77
2022/04/01 07:53:49;;;;;;;4.07;2.58;;;;;;;3.10;95.55;94133.69;5090891;28;20040;-76
2022/04/01 07:56:16;;;;;;;5.65;3.70;;;;;;;2.76;96.02;94141.91;5105813;28;20497;-76
2022/04/01 07:58:44;;;;;;;4.40;2.97;;;;;;;2.80;96.43;94140.94;5105928;28;20521;-76
2022/04/01 08:01:11;;;;;;;5.20;3.28;;;;;;;2.80;96.72;94146.31;5105417;28;20533;-76
2022/04/01 08:03:41;;;;;;;4.88;2.65;;;;;;;2.67;97.19;94147.34;5106314;28;20071;-76
2022/04/01 08:06:08;;;;;;;4.07;2.88;;;;;;;2.70;96.37;94151.25;5105551;28;20058;-76
2022/04/01 08:08:34;;;;;;;3.40;2.40;;;;;;;2.76;95.87;94145.38;5106672;28;20579;-76
2022/04/01 08:11:01;;;;;;;3.42;2.60;;;;;;;2.70;95.62;94146.69;5105401;28;20055;-76
2022/04/01 08:13:27;;;;;;;3.90;2.70;;;;;;;2.59;94.80;94145.44;5105857;28;20047;-76
2022/04/01 08:15:55;;;;;;;2.85;2.03;;;;;;;2.85;95.21;94148.84;5105939;28;20050;-76
2022/04/01 08:18:21;;;;;;;3.92;2.53;;;;;;;2.76;94.97;94156.13;5105953;28;20052;-77
2022/04/01 08:20:48;;;;;;;3.15;2.10;;;;;;;2.83;94.05;94158.34;5105351;28;20052;-76
2022/04/01 08:23:15;;;;;;;3.67;2.40;;;;;;;2.67;93.79;94158.09;5105372;28;20113;-77
2022/04/01 08:25:41;;;;;;;3.05;2.00;;;;;;;2.65;94.12;94154.91;5107143;28;20211;-76
2022/04/01 08:28:08;;;;;;;3.50;2.35;;;;;;;2.79;95.09;94158.19;5108961;28;20056;-76
2022/04/01 08:30:34;;;;;;;3.95;2.30;;;;;;;2.86;94.10;94161.16;5109819;28;20055;-76
2022/04/01 08:33:03;;;;;;;4.25;2.28;;;;;;;2.73;94.12;94153.31;5109153;28;20051;-76
2022/04/01 08:35:29;;;;;;;5.55;2.90;;;;;;;2.88;95.37;94167.03;5109831;28;20043;-77
2022/04/01 08:37:58;;;;;;;4.28;2.65;;;;;;;2.90;95.35;94165.91;5108539;28;20048;-77
2022/04/01 08:40:24;;;;;;;4.18;2.30;;;;;;;3.04;94.93;94167.25;5108733;28;20043;-76
2022/04/01 08:42:51;;;;;;;3.30;2.10;;;;;;;2.92;93.32;94174.41;5108801;28;20044;-76
2022/04/01 08:45:18;;;;;;;4.03;2.53;;;;;;;2.78;93.97;94183.50;5108936;28;20498;-77
2022/04/01 08:47:45;;;;;;;3.60;2.60;;;;;;;2.70;93.74;94186.19;5109158;28;20073;-75
2022/04/01 08:50:13;;;;;;;4.85;2.90;;;;;;;2.68;93.77;94197.28;5108552;28;20532;-75
2022/04/01 08:52:40;;;;;;;3.75;2.30;;;;;;;2.80;94.53;94194.69;5108998;28;20052;-74
2022/04/01 08:55:08;;;;;;;4.00;2.85;;;;;;;2.91;95.14;94195.13;5109094;28;20054;-74
2022/04/01 08:57:36;;;;;;;3.20;2.50;;;;;;;2.82;93.33;94197.88;5109632;28;20047;-77
2022/04/01 09:00:04;;;;;;;4.82;2.55;;;;;;;2.87;92.96;94195.00;5108276;28;20047;-75
2022/04/01 09:02:31;;;;;;;4.57;3.03;;;;;;;2.82;92.93;94202.47;5109246;28;20055;-75
2022/04/01 09:05:04;;;;;;;4.15;2.42;;;;;;;2.75;92.85;94202.94;5108783;28;20498;-76
2022/04/01 09:07:31;;;;;;;;;;;;;;;2.57;93.35;94209.47;5108173;28;20051;-77
2022/04/01 09:10:01;;;;;;;3.65;2.40;;;;;;;2.51;93.18;94208.84;5108567;28;19931;-75
2022/04/01 09:12:28;;;;;;;3.95;2.67;;;;;;;2.66;92.93;94210.22;5108050;28;20055;-77
2022/04/01 09:14:56;;;;;;;4.38;2.67;;;;;;;2.55;93.44;94209.78;5122916;27;20043;-77
2022/04/01 09:17:23;;;;;;;4.00;2.63;;;;;;;2.56;93.10;94210.59;5128389;27;20068;-76
2022/04/01 09:20:02;;;;;;;3.88;2.67;;;;;;;2.64;93.28;94217.81;5129678;27;20054;-76
2022/04/01 09:22:29;;;;;;;4.38;2.50;;;;;;;2.78;93.90;94229.19;5128254;27;20051;-76
2022/04/01 09:24:59;;;;;;;2.75;2.28;;;;;;;2.76;93.27;94223.31;5129676;27;20043;-76
2022/04/01 09:27:51;;;;;;;3.08;2.10;;;;;;;2.77;92.83;94226.81;5128440;27;20054;-76
2022/04/01 09:30:19;;;;;;;3.80;2.63;;;;;;;2.72;93.60;94225.09;5103478;27;20063;-76
2022/04/01 09:32:49;;;;;;;3.55;2.22;;;;;;;2.75;94.14;94235.19;5128592;27;20051;-76
2022/04/01 09:35:17;;;;;;;5.05;2.72;;;;;;;2.56;93.18;94227.50;5128034;27;20501;-76
2022/04/01 09:37:45;;;;;;;3.67;2.72;;;;;;;2.78;93.68;94229.19;5128702;27;20533;-76
2022/04/01 09:40:17;;;;;;;3.60;2.35;;;;;;;2.51;93.64;94224.97;5128888;27;20623;-77
2022/04/01 09:42:47;;;;;;;5.70;3.28;;;;;;;2.56;94.27;94232.09;5128848;27;20047;-77
2022/04/01 09:45:17;;;;;;;3.95;2.50;;;;;;;2.74;93.63;94225.56;5126841;27;20050;-74
2022/04/01 09:47:45;;;;;;;4.10;2.50;;;;;;;2.69;94.13;94228.41;5128934;27;20043;-77
2022/04/01 09:50:15;;;;;;;4.32;2.72;;;;;;;2.88;93.45;94228.06;5128178;27;20604;-77
2022/04/01 09:52:42;;;;;;;4.72;3.25;;;;;;;2.87;93.09;94232.66;5128210;27;20063;-78
2022/04/01 09:55:09;;;;;;;4.30;2.45;;;;;;;2.83;93.63;94229.00;5091519;27;20044;-77
2022/04/01 09:57:37;;;;;;;3.53;2.40;;;;;;;2.93;93.77;94240.53;5088246;28;20522;-74
2022/04/01 10:00:06;;;;;;;3.08;2.05;;;;;;;2.84;92.80;94238.66;5088803;28;20071;-74
2022/04/01 10:02:32;;;;;;;3.58;2.10;;;;;;;2.98;93.58;94229.59;5087862;28;20067;-75
2022/04/01 10:04:59;;;;;;;2.90;2.08;;;;;;;2.99;93.79;94233.88;5089065;28;20044;-75
2022/04/01 10:07:27;;;;;;;3.83;2.33;;;;;;;2.83;92.58;94234.38;5087477;28;20087;-76
2022/04/01 10:09:54;;;;;;;5.00;2.45;;;;;;;2.68;93.07;94242.97;5088378;28;20154;-75
2022/04/01 10:12:24;;;;;;;3.33;2.25;;;;;;;2.82;93.85;94240.88;5087780;28;20143;-75
2022/04/01 10:14:57;;;;;;;4.13;2.40;;;;;;;2.80;93.71;94248.47;5116495;27;20086;-75
2022/04/01 10:17:27;;;;;;;3.42;2.13;;;;;;;2.61;93.33;94246.13;5128804;27;20053;-74
2022/04/01 10:19:55;;;;;;;5.32;2.58;;;;;;;2.67;94.01;94246.75;5128535;27;20459;-75
2022/04/01 10:22:21;;;;;;;5.80;2.55;;;;;;;2.28;93.71;94253.91;5129042;27;20497;-75
2022/04/01 10:24:55;;;;;;;4.82;2.42;;;;;;;2.43;94.55;94252.63;5128548;27;20055;-75
2022/04/01 10:27:27;;;;;;;4.40;2.33;;;;;;;2.54;93.87;94253.09;5128755;27;20054;-75
2022/04/01 10:29:58;;;;;;;4.80;2.55;;;;;;;2.59;93.90;94251.03;5128888;27;20074;-74
2022/04/01 10:32:27;;;;;;;6.05;3.20;;;;;;;2.90;94.39;94258.09;5128447;27;20046;-76
2022/04/01 10:34:56;;;;;;;4.03;2.20;;;;;;;2.98;93.56;94253.81;5129109;27;20443;-75
2022/04/01 10:37:25;;;;;;;5.72;2.83;;;;;;;3.02;92.47;94258.19;5128006;27;20651;-74
2022/04/01 10:39:53;;;;;;;7.10;2.45;;;;;;;2.86;91.14;94252.53;5129161;27;20043;-75
2022/04/01 10:42:27;;;;;;;5.50;2.50;;;;;;;2.98;92.01;94259.97;5127781;27;20112;-75
2022/04/01 10:44:56;;;;;;;6.82;2.70;;;;;;;2.94;92.25;94266.31;5113835;27;20054;-74
2022/04/01 10:51:36;;;;;;;11.60;2.88;;;;;;;2.98;92.09;94267.25;5107443;28;20043;-75
2022/04/01 10:53:37;;;;;;;16.30;3.25;;;;;;;3.18;93.09;94266.53;5108243;28;20136;-75
2022/04/01 10:56:32;;;;;;;6.90;1.95;;;;;;;3.00;91.99;94273.09;5107192;28;20051;-75
2022/04/01 10:59:08;;;;;;;5.20;2.22;;;;;;;3.01;93.01;94274.66;5108599;28;20059;-77
2022/04/01 11:01:37;;;;;;;19.77;3.75;;;;;;;3.12;92.36;94270.50;5108149;28;20059;-75
2022/04/01 11:04:25;;;;;;;25.20;3.47;;;;;;;2.99;92.99;94271.50;5107096;28;20596;-75
2022/04/01 11:06:52;;;;;;;18.98;3.58;;;;;;;3.21;94.14;94283.94;5108827;28;20055;-76
2022/04/01 11:09:51;;;;;;;12.75;3.45;;;;;;;3.08;92.48;94280.31;5106845;28;20047;-75
2022/04/01 11:12:29;;;;;;;23.70;3.92;;;;;;;2.98;92.32;94284.16;5096704;28;20130;-74
2022/04/01 11:15:16;;;;;;;6.10;2.20;;;;;;;2.56;92.12;94275.06;5107772;28;20058;-74
2022/04/01 11:18:06;;;;;;;7.75;3.00;;;;;;;2.43;93.79;94284.88;5106835;28;20105;-75
2022/04/01 11:20:35;;;;;;;3.78;2.58;;;;;;;2.48;95.35;94278.53;5107682;28;20048;-74
2022/04/01 11:23:10;;;;;;;3.60;2.40;;;;;;;2.45;94.57;94284.53;5107035;28;20051;-74
2022/04/01 11:25:55;;;;;;;6.05;3.03;;;;;;;2.40;95.06;94282.00;5107699;28;20063;-75
2022/04/01 11:28:24;;;;;;;4.78;2.80;;;;;;;2.44;96.17;94280.28;5107446;28;20102;-75
2022/04/01 11:31:11;;;;;;;6.93;3.65;;;;;;;2.44;95.37;94283.75;5106963;28;20055;-76
2022/04/01 11:33:38;;;;;;;5.00;3.08;;;;;;;2.67;95.21;94287.06;5107285;28;20055;-75
2022/04/01 11:36:07;;;;;;;6.88;2.80;;;;;;;2.58;94.57;94283.59;5105847;28;20051;-74
2022/04/01 11:38:34;;;;;;;7.40;3.58;;;;;;;2.59;94.31;94279.78;5106497;28;20105;-75
2022/04/01 11:41:03;;;;;;;4.55;2.97;;;;;;;2.93;94.77;94280.88;5106245;28;20398;-75
2022/04/01 11:43:31;;;;;;;6.03;3.60;;;;;;;2.89;93.61;94288.78;5105942;28;20075;-75
2022/04/01 11:46:02;;;;;;;5.68;3.08;;;;;;;2.84;93.75;94286.25;5106695;28;20051;-75
2022/04/01 11:48:31;;;;;;;6.28;3.35;;;;;;;2.87;93.39;94290.97;5106157;28;20078;-75
2022/04/01 11:50:59;;;;;;;4.15;2.47;;;;;;;2.57;92.34;94295.47;5106953;28;20089;-76
2022/04/01 11:53:29;;;;;;;6.03;2.92;;;;;;;2.51;93.96;94296.72;5104758;28;20059;-75
2022/04/01 11:55:57;;;;;;;4.40;2.50;;;;;;;2.68;94.00;94291.34;5107007;28;20071;-76